Atlanta, Mississippi
Current Conditions -  °F | °C
As of 6:15 AM on Friday 31 Oct 2014 (Local Time) from KSTF Reporting Station
NA  
Wind Chill: 41°   Ceiling: NA
Heat Index: 41°   Visibility: NA
Dew Point: 41°   Wind: 0mph
Humidity: 100%   Direction: NA
Pressure: 29.98"   Gusts: NA
Location:  33.7962°N, 89.0553°W
Report Text: KSTF 311115Z AUTO 00000KT 05/05 A2998 RMK AO2 PWINO
Loading
Personal Weather Stations






























Interactive Weather Map
Tropical Storm Tracking
New forecast layout! Learn more

10-Day Weather Forecast

Advertisements
Track Severe Weather on mobile